sensor_id;sensor_type;location;lat;lon;timestamp;temperature;humidity
3194;DHT22;1608;50.860;13.466;2022-11-21T00:00:32;2.80;99.90
3194;DHT22;1608;50.860;13.466;2022-11-21T00:02:59;2.90;99.90
3194;DHT22;1608;50.860;13.466;2022-11-21T00:05:27;2.90;99.90
3194;DHT22;1608;50.860;13.466;2022-11-21T00:07:54;3.10;99.90
3194;DHT22;1608;50.860;13.466;2022-11-21T00:10:22;3.00;99.90
3194;DHT22;1608;50.860;13.466;2022-11-21T00:12:52;3.20;99.90
3194;DHT22;1608;50.860;13.466;2022-11-21T00:15:20;3.20;99.90
3194;DHT22;1608;50.860;13.466;2022-11-21T00:17:48;3.20;99.90
3194;DHT22;1608;50.860;13.466;2022-11-21T00:20:15;3.20;99.90
3194;DHT22;1608;50.860;13.466;2022-11-21T00:22:42;3.30;99.90
3194;DHT22;1608;50.860;13.466;2022-11-21T00:25:09;3.30;99.90
3194;DHT22;1608;50.860;13.466;2022-11-21T00:27:36;3.30;99.90
3194;DHT22;1608;50.860;13.466;2022-11-21T00:30:04;3.40;99.90
3194;DHT22;1608;50.860;13.466;2022-11-21T00:32:31;3.40;99.90
3194;DHT22;1608;50.860;13.466;2022-11-21T00:35:00;3.50;99.90
3194;DHT22;1608;50.860;13.466;2022-11-21T00:37:26;3.50;99.90
3194;DHT22;1608;50.860;13.466;2022-11-21T00:39:53;3.50;99.90
3194;DHT22;1608;50.860;13.466;2022-11-21T00:42:20;3.60;99.90
3194;DHT22;1608;50.860;13.466;2022-11-21T00:44:47;3.60;99.90
3194;DHT22;1608;50.860;13.466;2022-11-21T00:47:14;3.60;99.90
3194;DHT22;1608;50.860;13.466;2022-11-21T00:49:41;3.60;99.90
3194;DHT22;1608;50.860;13.466;2022-11-21T00:52:09;3.70;99.90
3194;DHT22;1608;50.860;13.466;2022-11-21T00:54:35;3.70;99.90
3194;DHT22;1608;50.860;13.466;2022-11-21T00:57:02;3.60;99.90
3194;DHT22;1608;50.860;13.466;2022-11-21T00:59:29;3.70;99.90
3194;DHT22;1608;50.860;13.466;2022-11-21T01:01:56;3.70;99.90
3194;DHT22;1608;50.860;13.466;2022-11-21T01:04:23;3.70;99.90
3194;DHT22;1608;50.860;13.466;2022-11-21T01:06:49;3.70;99.90
3194;DHT22;1608;50.860;13.466;2022-11-21T01:09:18;3.70;99.90
3194;DHT22;1608;50.860;13.466;2022-11-21T01:11:44;3.70;99.90
3194;DHT22;1608;50.860;13.466;2022-11-21T01:14:11;3.70;99.90
3194;DHT22;1608;50.860;13.466;2022-11-21T01:16:38;3.70;99.90
3194;DHT22;1608;50.860;13.466;2022-11-21T01:19:05;3.70;99.90
3194;DHT22;1608;50.860;13.466;2022-11-21T01:21:32;3.70;99.90
3194;DHT22;1608;50.860;13.466;2022-11-21T01:23:59;3.80;99.90
3194;DHT22;1608;50.860;13.466;2022-11-21T01:26:29;3.80;99.90
3194;DHT22;1608;50.860;13.466;2022-11-21T01:28:57;3.80;99.90
3194;DHT22;1608;50.860;13.466;2022-11-21T01:31:26;3.80;99.90
3194;DHT22;1608;50.860;13.466;2022-11-21T01:33:53;3.80;99.90
3194;DHT22;1608;50.860;13.466;2022-11-21T01:36:22;3.80;99.90
3194;DHT22;1608;50.860;13.466;2022-11-21T01:38:50;3.80;99.90
3194;DHT22;1608;50.860;13.466;2022-11-21T01:41:19;3.80;99.90
3194;DHT22;1608;50.860;13.466;2022-11-21T01:43:48;3.90;99.90
3194;DHT22;1608;50.860;13.466;2022-11-21T01:46:16;3.90;99.90
3194;DHT22;1608;50.860;13.466;2022-11-21T01:48:47;3.90;99.90
3194;DHT22;1608;50.860;13.466;2022-11-21T01:51:19;3.90;99.90
3194;DHT22;1608;50.860;13.466;2022-11-21T01:53:51;3.90;99.90
3194;DHT22;1608;50.860;13.466;2022-11-21T01:56:19;3.90;99.90
3194;DHT22;1608;50.860;13.466;2022-11-21T01:58:49;3.80;99.90
3194;DHT22;1608;50.860;13.466;2022-11-21T02:01:17;3.80;99.90
3194;DHT22;1608;50.860;13.466;2022-11-21T02:03:45;3.80;99.90
3194;DHT22;1608;50.860;13.466;2022-11-21T02:06:13;3.70;99.90
3194;DHT22;1608;50.860;13.466;2022-11-21T02:08:42;3.80;99.90
3194;DHT22;1608;50.860;13.466;2022-11-21T02:11:16;3.70;99.90
3194;DHT22;1608;50.860;13.466;2022-11-21T02:13:45;3.80;99.90
3194;DHT22;1608;50.860;13.466;2022-11-21T02:16:14;3.80;99.90
3194;DHT22;1608;50.860;13.466;2022-11-21T02:18:40;3.80;99.90
3194;DHT22;1608;50.860;13.466;2022-11-21T02:21:12;3.80;99.90
3194;DHT22;1608;50.860;13.466;2022-11-21T02:23:48;3.80;99.90
3194;DHT22;1608;50.860;13.466;2022-11-21T02:26:17;3.80;99.90
3194;DHT22;1608;50.860;13.466;2022-11-21T02:28:44;3.80;99.90
3194;DHT22;1608;50.860;13.466;2022-11-21T02:31:11;3.80;99.90
3194;DHT22;1608;50.860;13.466;2022-11-21T02:33:37;3.90;99.90
3194;DHT22;1608;50.860;13.466;2022-11-21T02:36:33;4.00;99.90
3194;DHT22;1608;50.860;13.466;2022-11-21T02:39:01;3.90;99.90
3194;DHT22;1608;50.860;13.466;2022-11-21T02:41:30;3.90;99.90
3194;DHT22;1608;50.860;13.466;2022-11-21T02:44:03;3.90;99.90
3194;DHT22;1608;50.860;13.466;2022-11-21T02:46:30;3.90;99.90
3194;DHT22;1608;50.860;13.466;2022-11-21T02:48:59;3.90;99.90
3194;DHT22;1608;50.860;13.466;2022-11-21T02:51:28;3.80;99.90
3194;DHT22;1608;50.860;13.466;2022-11-21T02:53:55;3.90;99.90
3194;DHT22;1608;50.860;13.466;2022-11-21T02:56:22;3.90;99.90
3194;DHT22;1608;50.860;13.466;2022-11-21T02:58:50;3.90;99.90
3194;DHT22;1608;50.860;13.466;2022-11-21T03:01:17;3.90;99.90
3194;DHT22;1608;50.860;13.466;2022-11-21T03:03:44;4.00;99.90
3194;DHT22;1608;50.860;13.466;2022-11-21T03:06:10;4.00;99.90
3194;DHT22;1608;50.860;13.466;2022-11-21T03:08:37;4.10;99.90
3194;DHT22;1608;50.860;13.466;2022-11-21T03:11:04;4.00;99.90
3194;DHT22;1608;50.860;13.466;2022-11-21T03:13:31;4.10;99.90
3194;DHT22;1608;50.860;13.466;2022-11-21T03:15:59;4.00;99.90
3194;DHT22;1608;50.860;13.466;2022-11-21T03:18:26;4.10;99.90
3194;DHT22;1608;50.860;13.466;2022-11-21T03:20:53;4.00;99.90
3194;DHT22;1608;50.860;13.466;2022-11-21T03:23:20;4.00;99.90
3194;DHT22;1608;50.860;13.466;2022-11-21T03:25:46;4.10;99.90
3194;DHT22;1608;50.860;13.466;2022-11-21T03:28:13;4.00;99.90
3194;DHT22;1608;50.860;13.466;2022-11-21T03:30:40;4.00;99.90
3194;DHT22;1608;50.860;13.466;2022-11-21T03:33:08;4.00;99.90
3194;DHT22;1608;50.860;13.466;2022-11-21T03:35:35;4.00;99.90
3194;DHT22;1608;50.860;13.466;2022-11-21T03:38:02;4.00;99.90
3194;DHT22;1608;50.860;13.466;2022-11-21T03:40:28;4.00;99.90
3194;DHT22;1608;50.860;13.466;2022-11-21T03:42:55;4.10;99.90
3194;DHT22;1608;50.860;13.466;2022-11-21T03:45:22;4.20;99.90
3194;DHT22;1608;50.860;13.466;2022-11-21T03:47:49;4.20;99.90
3194;DHT22;1608;50.860;13.466;2022-11-21T03:50:17;4.20;99.90
3194;DHT22;1608;50.860;13.466;2022-11-21T03:52:45;4.30;99.90
3194;DHT22;1608;50.860;13.466;2022-11-21T03:55:12;4.30;99.90
3194;DHT22;1608;50.860;13.466;2022-11-21T03:57:39;4.40;99.90
3194;DHT22;1608;50.860;13.466;2022-11-21T04:00:07;4.40;99.90
3194;DHT22;1608;50.860;13.466;2022-11-21T04:02:34;4.50;99.90
3194;DHT22;1608;50.860;13.466;2022-11-21T04:05:01;4.50;99.90
3194;DHT22;1608;50.860;13.466;2022-11-21T04:07:29;4.60;99.90
3194;DHT22;1608;50.860;13.466;2022-11-21T04:09:56;4.70;99.90
3194;DHT22;1608;50.860;13.466;2022-11-21T04:12:23;4.70;99.90
3194;DHT22;1608;50.860;13.466;2022-11-21T04:14:49;4.60;99.90
3194;DHT22;1608;50.860;13.466;2022-11-21T04:17:16;4.70;99.90
3194;DHT22;1608;50.860;13.466;2022-11-21T04:19:43;4.70;99.90
3194;DHT22;1608;50.860;13.466;2022-11-21T04:22:10;4.70;99.90
3194;DHT22;1608;50.860;13.466;2022-11-21T04:24:38;4.70;99.90
3194;DHT22;1608;50.860;13.466;2022-11-21T04:27:05;4.70;99.90
3194;DHT22;1608;50.860;13.466;2022-11-21T04:29:31;4.80;99.90
3194;DHT22;1608;50.860;13.466;2022-11-21T04:31:58;4.80;99.90
3194;DHT22;1608;50.860;13.466;2022-11-21T04:34:25;4.80;99.90
3194;DHT22;1608;50.860;13.466;2022-11-21T04:36:52;4.80;99.90
3194;DHT22;1608;50.860;13.466;2022-11-21T04:39:18;4.90;99.90
3194;DHT22;1608;50.860;13.466;2022-11-21T04:41:46;4.90;99.90
3194;DHT22;1608;50.860;13.466;2022-11-21T04:44:13;4.90;99.90
3194;DHT22;1608;50.860;13.466;2022-11-21T04:46:40;4.90;99.90
3194;DHT22;1608;50.860;13.466;2022-11-21T04:49:07;4.90;99.90
3194;DHT22;1608;50.860;13.466;2022-11-21T04:51:33;4.90;99.90
3194;DHT22;1608;50.860;13.466;2022-11-21T04:54:00;4.90;99.90
3194;DHT22;1608;50.860;13.466;2022-11-21T04:56:27;5.00;99.90
3194;DHT22;1608;50.860;13.466;2022-11-21T04:58:55;5.00;99.90
3194;DHT22;1608;50.860;13.466;2022-11-21T05:01:22;5.00;99.90
3194;DHT22;1608;50.860;13.466;2022-11-21T05:03:49;4.90;99.90
3194;DHT22;1608;50.860;13.466;2022-11-21T05:06:17;5.00;99.90
3194;DHT22;1608;50.860;13.466;2022-11-21T05:08:44;5.00;99.90
3194;DHT22;1608;50.860;13.466;2022-11-21T05:11:11;5.00;99.90
3194;DHT22;1608;50.860;13.466;2022-11-21T05:13:57;5.00;99.90
3194;DHT22;1608;50.860;13.466;2022-11-21T05:16:23;4.90;99.90
3194;DHT22;1608;50.860;13.466;2022-11-21T05:18:50;4.80;99.90
3194;DHT22;1608;50.860;13.466;2022-11-21T05:21:17;4.90;99.90
3194;DHT22;1608;50.860;13.466;2022-11-21T05:23:44;4.90;99.90
3194;DHT22;1608;50.860;13.466;2022-11-21T05:26:10;5.00;99.90
3194;DHT22;1608;50.860;13.466;2022-11-21T05:28:37;5.00;99.90
3194;DHT22;1608;50.860;13.466;2022-11-21T05:31:05;5.10;99.90
3194;DHT22;1608;50.860;13.466;2022-11-21T05:33:32;5.10;99.90
3194;DHT22;1608;50.860;13.466;2022-11-21T05:35:59;5.00;99.90
3194;DHT22;1608;50.860;13.466;2022-11-21T05:38:26;5.10;99.90
3194;DHT22;1608;50.860;13.466;2022-11-21T05:40:52;5.10;99.90
3194;DHT22;1608;50.860;13.466;2022-11-21T05:43:19;5.10;99.90
3194;DHT22;1608;50.860;13.466;2022-11-21T05:46:05;5.10;99.90
3194;DHT22;1608;50.860;13.466;2022-11-21T05:48:32;5.10;99.90
3194;DHT22;1608;50.860;13.466;2022-11-21T05:51:01;5.10;99.90
3194;DHT22;1608;50.860;13.466;2022-11-21T05:53:28;5.20;99.90
3194;DHT22;1608;50.860;13.466;2022-11-21T05:55:55;5.20;99.90
3194;DHT22;1608;50.860;13.466;2022-11-21T05:58:21;5.20;99.90
3194;DHT22;1608;50.860;13.466;2022-11-21T06:00:48;5.20;99.90
3194;DHT22;1608;50.860;13.466;2022-11-21T06:03:16;5.20;99.90
3194;DHT22;1608;50.860;13.466;2022-11-21T06:05:51;5.20;99.90
3194;DHT22;1608;50.860;13.466;2022-11-21T06:08:18;5.20;99.90
3194;DHT22;1608;50.860;13.466;2022-11-21T06:10:45;5.10;99.90
3194;DHT22;1608;50.860;13.466;2022-11-21T06:13:11;5.20;99.90
3194;DHT22;1608;50.860;13.466;2022-11-21T06:15:52;5.10;99.90
3194;DHT22;1608;50.860;13.466;2022-11-21T06:18:22;5.10;99.90
3194;DHT22;1608;50.860;13.466;2022-11-21T06:20:49;5.10;99.90
3194;DHT22;1608;50.860;13.466;2022-11-21T06:23:16;5.10;99.90
3194;DHT22;1608;50.860;13.466;2022-11-21T06:25:43;5.10;99.90
3194;DHT22;1608;50.860;13.466;2022-11-21T06:28:11;5.10;99.90
3194;DHT22;1608;50.860;13.466;2022-11-21T06:30:37;5.10;99.90
3194;DHT22;1608;50.860;13.466;2022-11-21T06:33:05;5.20;99.90
3194;DHT22;1608;50.860;13.466;2022-11-21T06:35:36;5.10;99.90
3194;DHT22;1608;50.860;13.466;2022-11-21T06:38:03;5.10;99.90
3194;DHT22;1608;50.860;13.466;2022-11-21T06:40:30;5.10;99.90
3194;DHT22;1608;50.860;13.466;2022-11-21T06:42:57;5.10;99.90
3194;DHT22;1608;50.860;13.466;2022-11-21T06:45:23;5.00;99.90
3194;DHT22;1608;50.860;13.466;2022-11-21T06:47:50;5.00;99.90
3194;DHT22;1608;50.860;13.466;2022-11-21T06:50:17;5.00;99.90
3194;DHT22;1608;50.860;13.466;2022-11-21T06:52:45;5.00;99.90
3194;DHT22;1608;50.860;13.466;2022-11-21T06:55:12;5.10;99.90
3194;DHT22;1608;50.860;13.466;2022-11-21T06:57:39;5.20;99.90
3194;DHT22;1608;50.860;13.466;2022-11-21T07:00:07;5.20;99.90
3194;DHT22;1608;50.860;13.466;2022-11-21T07:02:34;5.20;99.90
3194;DHT22;1608;50.860;13.466;2022-11-21T07:05:01;5.20;99.90
3194;DHT22;1608;50.860;13.466;2022-11-21T07:07:28;5.30;99.90
3194;DHT22;1608;50.860;13.466;2022-11-21T07:09:56;5.10;99.90
3194;DHT22;1608;50.860;13.466;2022-11-21T07:12:22;5.10;99.90
3194;DHT22;1608;50.860;13.466;2022-11-21T07:15:08;5.00;99.90
3194;DHT22;1608;50.860;13.466;2022-11-21T07:17:35;4.90;99.90
3194;DHT22;1608;50.860;13.466;2022-11-21T07:20:02;4.80;99.90
3194;DHT22;1608;50.860;13.466;2022-11-21T07:22:29;4.80;99.90
3194;DHT22;1608;50.860;13.466;2022-11-21T07:24:58;4.90;99.90
3194;DHT22;1608;50.860;13.466;2022-11-21T07:27:24;4.90;99.90
3194;DHT22;1608;50.860;13.466;2022-11-21T07:29:51;5.00;99.90
3194;DHT22;1608;50.860;13.466;2022-11-21T07:32:18;5.00;99.90
3194;DHT22;1608;50.860;13.466;2022-11-21T07:34:45;5.00;99.90
3194;DHT22;1608;50.860;13.466;2022-11-21T07:37:11;5.00;99.90
3194;DHT22;1608;50.860;13.466;2022-11-21T07:39:38;5.00;99.90
3194;DHT22;1608;50.860;13.466;2022-11-21T07:42:06;4.90;99.90
3194;DHT22;1608;50.860;13.466;2022-11-21T07:44:33;4.90;99.90
3194;DHT22;1608;50.860;13.466;2022-11-21T07:47:00;4.90;99.90
3194;DHT22;1608;50.860;13.466;2022-11-21T07:49:27;4.90;99.90
3194;DHT22;1608;50.860;13.466;2022-11-21T07:51:53;4.90;99.90
3194;DHT22;1608;50.860;13.466;2022-11-21T07:54:20;4.80;99.90
3194;DHT22;1608;50.860;13.466;2022-11-21T07:56:47;4.80;99.90
3194;DHT22;1608;50.860;13.466;2022-11-21T07:59:15;4.70;99.90
3194;DHT22;1608;50.860;13.466;2022-11-21T08:01:43;4.80;99.90
3194;DHT22;1608;50.860;13.466;2022-11-21T08:04:10;4.90;99.90
3194;DHT22;1608;50.860;13.466;2022-11-21T08:06:37;4.90;99.90
3194;DHT22;1608;50.860;13.466;2022-11-21T08:09:04;4.90;99.90
3194;DHT22;1608;50.860;13.466;2022-11-21T08:11:31;4.90;99.90
3194;DHT22;1608;50.860;13.466;2022-11-21T08:13:58;4.90;99.90
3194;DHT22;1608;50.860;13.466;2022-11-21T08:16:26;5.00;99.90
3194;DHT22;1608;50.860;13.466;2022-11-21T08:18:57;5.00;99.90
3194;DHT22;1608;50.860;13.466;2022-11-21T08:21:24;5.00;99.90
3194;DHT22;1608;50.860;13.466;2022-11-21T08:23:51;5.00;99.90
3194;DHT22;1608;50.860;13.466;2022-11-21T08:26:17;5.00;99.90
3194;DHT22;1608;50.860;13.466;2022-11-21T08:28:44;5.00;99.90
3194;DHT22;1608;50.860;13.466;2022-11-21T08:31:11;5.00;99.90
3194;DHT22;1608;50.860;13.466;2022-11-21T08:33:39;4.90;99.90
3194;DHT22;1608;50.860;13.466;2022-11-21T08:36:07;4.90;99.90
3194;DHT22;1608;50.860;13.466;2022-11-21T08:38:33;4.80;99.90
3194;DHT22;1608;50.860;13.466;2022-11-21T08:41:00;4.80;99.90
3194;DHT22;1608;50.860;13.466;2022-11-21T08:43:44;4.80;99.90
3194;DHT22;1608;50.860;13.466;2022-11-21T08:46:11;4.70;99.90
3194;DHT22;1608;50.860;13.466;2022-11-21T08:48:39;4.60;99.90
3194;DHT22;1608;50.860;13.466;2022-11-21T08:51:06;4.60;99.90
3194;DHT22;1608;50.860;13.466;2022-11-21T08:53:33;4.50;99.90
3194;DHT22;1608;50.860;13.466;2022-11-21T08:56:00;4.40;99.90
3194;DHT22;1608;50.860;13.466;2022-11-21T08:58:27;4.30;99.90
3194;DHT22;1608;50.860;13.466;2022-11-21T09:00:54;4.30;99.90
3194;DHT22;1608;50.860;13.466;2022-11-21T09:03:20;4.20;99.90
3194;DHT22;1608;50.860;13.466;2022-11-21T09:05:48;4.30;99.90
3194;DHT22;1608;50.860;13.466;2022-11-21T09:08:15;4.20;99.90
3194;DHT22;1608;50.860;13.466;2022-11-21T09:10:42;4.20;99.90
3194;DHT22;1608;50.860;13.466;2022-11-21T09:13:09;4.20;99.90
3194;DHT22;1608;50.860;13.466;2022-11-21T09:15:36;4.20;99.90
3194;DHT22;1608;50.860;13.466;2022-11-21T09:18:21;4.20;99.90
3194;DHT22;1608;50.860;13.466;2022-11-21T09:20:49;4.10;99.90
3194;DHT22;1608;50.860;13.466;2022-11-21T09:23:16;3.90;99.90
3194;DHT22;1608;50.860;13.466;2022-11-21T09:25:43;3.90;99.90
3194;DHT22;1608;50.860;13.466;2022-11-21T09:28:11;3.90;99.90
3194;DHT22;1608;50.860;13.466;2022-11-21T09:30:39;3.90;99.90
3194;DHT22;1608;50.860;13.466;2022-11-21T09:33:09;3.90;99.90
3194;DHT22;1608;50.860;13.466;2022-11-21T09:35:36;4.00;99.90
3194;DHT22;1608;50.860;13.466;2022-11-21T09:38:05;3.90;99.90
3194;DHT22;1608;50.860;13.466;2022-11-21T09:40:33;4.00;99.90
3194;DHT22;1608;50.860;13.466;2022-11-21T09:43:29;4.00;99.90
3194;DHT22;1608;50.860;13.466;2022-11-21T09:46:04;4.10;99.90
3194;DHT22;1608;50.860;13.466;2022-11-21T09:48:37;4.20;99.90
3194;DHT22;1608;50.860;13.466;2022-11-21T09:51:11;4.20;99.90
3194;DHT22;1608;50.860;13.466;2022-11-21T09:53:50;4.30;99.90
3194;DHT22;1608;50.860;13.466;2022-11-21T09:56:20;4.30;99.90
3194;DHT22;1608;50.860;13.466;2022-11-21T09:58:55;4.30;99.90
3194;DHT22;1608;50.860;13.466;2022-11-21T10:01:30;4.40;99.90
3194;DHT22;1608;50.860;13.466;2022-11-21T10:03:57;4.40;99.90
3194;DHT22;1608;50.860;13.466;2022-11-21T10:06:28;4.40;99.90
3194;DHT22;1608;50.860;13.466;2022-11-21T10:09:04;4.40;99.90
3194;DHT22;1608;50.860;13.466;2022-11-21T10:11:41;4.30;99.90
3194;DHT22;1608;50.860;13.466;2022-11-21T10:14:33;4.40;99.90
3194;DHT22;1608;50.860;13.466;2022-11-21T10:17:14;4.30;99.90
3194;DHT22;1608;50.860;13.466;2022-11-21T10:19:55;4.30;99.90
3194;DHT22;1608;50.860;13.466;2022-11-21T10:22:38;4.30;99.90
3194;DHT22;1608;50.860;13.466;2022-11-21T10:25:14;4.20;99.90
3194;DHT22;1608;50.860;13.466;2022-11-21T10:27:48;4.20;99.90
3194;DHT22;1608;50.860;13.466;2022-11-21T10:30:17;4.20;99.90
3194;DHT22;1608;50.860;13.466;2022-11-21T10:32:47;4.20;99.90
3194;DHT22;1608;50.860;13.466;2022-11-21T10:35:18;4.10;99.90
3194;DHT22;1608;50.860;13.466;2022-11-21T10:37:49;4.10;99.90
3194;DHT22;1608;50.860;13.466;2022-11-21T10:40:30;4.10;99.90
3194;DHT22;1608;50.860;13.466;2022-11-21T10:43:01;4.20;99.90
3194;DHT22;1608;50.860;13.466;2022-11-21T10:45:50;4.20;99.90
3194;DHT22;1608;50.860;13.466;2022-11-21T10:48:17;4.20;99.90
3194;DHT22;1608;50.860;13.466;2022-11-21T10:50:53;4.20;99.90
3194;DHT22;1608;50.860;13.466;2022-11-21T10:53:25;4.20;99.90
3194;DHT22;1608;50.860;13.466;2022-11-21T10:56:13;4.30;99.90
3194;DHT22;1608;50.860;13.466;2022-11-21T10:58:42;4.30;99.90
3194;DHT22;1608;50.860;13.466;2022-11-21T11:01:24;4.40;99.90
3194;DHT22;1608;50.860;13.466;2022-11-21T11:04:07;4.50;99.90
3194;DHT22;1608;50.860;13.466;2022-11-21T11:06:36;4.50;99.90
3194;DHT22;1608;50.860;13.466;2022-11-21T11:09:03;4.70;99.90
3194;DHT22;1608;50.860;13.466;2022-11-21T11:11:33;4.70;99.90
3194;DHT22;1608;50.860;13.466;2022-11-21T11:14:01;4.60;99.90
3194;DHT22;1608;50.860;13.466;2022-11-21T11:16:30;4.60;99.90
3194;DHT22;1608;50.860;13.466;2022-11-21T11:18:59;4.60;99.90
3194;DHT22;1608;50.860;13.466;2022-11-21T11:21:29;4.60;99.90
3194;DHT22;1608;50.860;13.466;2022-11-21T11:24:10;4.60;99.90
3194;DHT22;1608;50.860;13.466;2022-11-21T11:26:52;4.60;99.90
3194;DHT22;1608;50.860;13.466;2022-11-21T11:29:24;4.60;99.90
3194;DHT22;1608;50.860;13.466;2022-11-21T11:31:54;4.60;99.90
3194;DHT22;1608;50.860;13.466;2022-11-21T11:34:22;4.60;99.90
3194;DHT22;1608;50.860;13.466;2022-11-21T11:37:04;4.50;99.90
3194;DHT22;1608;50.860;13.466;2022-11-21T11:39:46;4.60;99.90
3194;DHT22;1608;50.860;13.466;2022-11-21T11:42:42;4.70;99.90
3194;DHT22;1608;50.860;13.466;2022-11-21T11:48:53;4.70;99.90
3194;DHT22;1608;50.860;13.466;2022-11-21T11:51:26;4.60;99.90
3194;DHT22;1608;50.860;13.466;2022-11-21T11:53:58;4.70;99.90
3194;DHT22;1608;50.860;13.466;2022-11-21T11:56:27;4.70;99.90
3194;DHT22;1608;50.860;13.466;2022-11-21T11:59:00;4.80;99.90
3194;DHT22;1608;50.860;13.466;2022-11-21T12:01:32;4.80;99.90
3194;DHT22;1608;50.860;13.466;2022-11-21T12:04:04;4.80;99.90
3194;DHT22;1608;50.860;13.466;2022-11-21T12:06:35;4.70;99.90
3194;DHT22;1608;50.860;13.466;2022-11-21T12:09:06;4.50;99.90
3194;DHT22;1608;50.860;13.466;2022-11-21T12:11:47;4.60;99.90
3194;DHT22;1608;50.860;13.466;2022-11-21T12:15:01;4.60;99.90
3194;DHT22;1608;50.860;13.466;2022-11-21T12:17:50;4.60;99.90
3194;DHT22;1608;50.860;13.466;2022-11-21T12:20:22;4.60;99.90
3194;DHT22;1608;50.860;13.466;2022-11-21T12:22:51;4.70;99.90
3194;DHT22;1608;50.860;13.466;2022-11-21T12:25:23;4.80;99.90
3194;DHT22;1608;50.860;13.466;2022-11-21T12:27:53;4.80;99.90
3194;DHT22;1608;50.860;13.466;2022-11-21T12:30:48;4.80;99.90
3194;DHT22;1608;50.860;13.466;2022-11-21T12:33:19;4.90;99.90
3194;DHT22;1608;50.860;13.466;2022-11-21T12:36:12;4.90;99.90
3194;DHT22;1608;50.860;13.466;2022-11-21T12:38:50;4.90;99.90
3194;DHT22;1608;50.860;13.466;2022-11-21T12:41:26;5.00;99.90
3194;DHT22;1608;50.860;13.466;2022-11-21T12:44:33;5.10;99.90
3194;DHT22;1608;50.860;13.466;2022-11-21T12:47:18;5.00;99.90
3194;DHT22;1608;50.860;13.466;2022-11-21T12:49:51;5.00;99.90
3194;DHT22;1608;50.860;13.466;2022-11-21T12:52:40;5.10;99.90
3194;DHT22;1608;50.860;13.466;2022-11-21T12:55:34;5.00;99.90
3194;DHT22;1608;50.860;13.466;2022-11-21T12:58:11;5.10;99.90
3194;DHT22;1608;50.860;13.466;2022-11-21T13:00:51;5.10;99.90
3194;DHT22;1608;50.860;13.466;2022-11-21T13:03:39;5.00;99.90
3194;DHT22;1608;50.860;13.466;2022-11-21T13:06:14;5.10;99.90
3194;DHT22;1608;50.860;13.466;2022-11-21T13:08:44;5.20;99.90
3194;DHT22;1608;50.860;13.466;2022-11-21T13:11:20;5.20;99.90
3194;DHT22;1608;50.860;13.466;2022-11-21T13:14:13;5.20;99.90
3194;DHT22;1608;50.860;13.466;2022-11-21T13:16:45;5.30;99.90
3194;DHT22;1608;50.860;13.466;2022-11-21T13:19:21;5.40;99.90
3194;DHT22;1608;50.860;13.466;2022-11-21T13:21:49;5.40;99.90
3194;DHT22;1608;50.860;13.466;2022-11-21T13:24:54;5.50;99.90
3194;DHT22;1608;50.860;13.466;2022-11-21T13:27:31;5.40;99.90
3194;DHT22;1608;50.860;13.466;2022-11-21T13:30:21;5.40;99.90
3194;DHT22;1608;50.860;13.466;2022-11-21T13:32:49;5.40;99.90
3194;DHT22;1608;50.860;13.466;2022-11-21T13:38:31;5.40;99.90
3194;DHT22;1608;50.860;13.466;2022-11-21T13:40:58;5.30;99.90
3194;DHT22;1608;50.860;13.466;2022-11-21T13:43:44;5.40;99.90
3194;DHT22;1608;50.860;13.466;2022-11-21T13:49:22;5.30;99.90
3194;DHT22;1608;50.860;13.466;2022-11-21T13:51:52;5.20;99.90
3194;DHT22;1608;50.860;13.466;2022-11-21T13:57:31;5.20;99.90
3194;DHT22;1608;50.860;13.466;2022-11-21T14:00:17;5.10;99.90
3194;DHT22;1608;50.860;13.466;2022-11-21T14:03:24;5.10;99.90
3194;DHT22;1608;50.860;13.466;2022-11-21T14:06:17;5.10;99.90
3194;DHT22;1608;50.860;13.466;2022-11-21T14:09:05;5.00;99.90
3194;DHT22;1608;50.860;13.466;2022-11-21T14:11:44;5.00;99.90
3194;DHT22;1608;50.860;13.466;2022-11-21T14:14:26;5.00;99.90
3194;DHT22;1608;50.860;13.466;2022-11-21T14:17:13;4.90;99.90
3194;DHT22;1608;50.860;13.466;2022-11-21T14:19:43;4.90;99.90
3194;DHT22;1608;50.860;13.466;2022-11-21T14:22:23;4.80;99.90
3194;DHT22;1608;50.860;13.466;2022-11-21T14:24:51;4.80;99.90
3194;DHT22;1608;50.860;13.466;2022-11-21T14:27:26;4.80;99.90
3194;DHT22;1608;50.860;13.466;2022-11-21T14:29:54;4.80;99.90
3194;DHT22;1608;50.860;13.466;2022-11-21T14:32:30;4.90;99.90
3194;DHT22;1608;50.860;13.466;2022-11-21T14:35:17;4.70;99.90
3194;DHT22;1608;50.860;13.466;2022-11-21T14:37:44;4.80;99.90
3194;DHT22;1608;50.860;13.466;2022-11-21T14:40:12;4.90;99.90
3194;DHT22;1608;50.860;13.466;2022-11-21T14:42:41;4.90;99.90
3194;DHT22;1608;50.860;13.466;2022-11-21T14:45:15;4.90;99.90
3194;DHT22;1608;50.860;13.466;2022-11-21T14:47:47;4.90;99.90
3194;DHT22;1608;50.860;13.466;2022-11-21T14:50:25;4.90;99.90
3194;DHT22;1608;50.860;13.466;2022-11-21T14:52:53;4.90;99.90
3194;DHT22;1608;50.860;13.466;2022-11-21T14:55:25;4.90;99.90
3194;DHT22;1608;50.860;13.466;2022-11-21T14:57:54;4.90;99.90
3194;DHT22;1608;50.860;13.466;2022-11-21T15:00:24;4.80;99.90
3194;DHT22;1608;50.860;13.466;2022-11-21T15:02:53;4.90;99.90
3194;DHT22;1608;50.860;13.466;2022-11-21T15:05:21;4.90;99.90
3194;DHT22;1608;50.860;13.466;2022-11-21T15:07:48;5.00;99.90
3194;DHT22;1608;50.860;13.466;2022-11-21T15:10:17;5.00;99.90
3194;DHT22;1608;50.860;13.466;2022-11-21T15:12:51;4.90;99.90
3194;DHT22;1608;50.860;13.466;2022-11-21T15:15:27;4.90;99.90
3194;DHT22;1608;50.860;13.466;2022-11-21T15:17:58;4.90;99.90
3194;DHT22;1608;50.860;13.466;2022-11-21T15:20:25;4.90;99.90
3194;DHT22;1608;50.860;13.466;2022-11-21T15:22:54;4.90;99.90
3194;DHT22;1608;50.860;13.466;2022-11-21T15:25:23;4.90;99.90
3194;DHT22;1608;50.860;13.466;2022-11-21T15:27:51;4.90;99.90
3194;DHT22;1608;50.860;13.466;2022-11-21T15:30:25;4.90;99.90
3194;DHT22;1608;50.860;13.466;2022-11-21T15:33:04;4.90;99.90
3194;DHT22;1608;50.860;13.466;2022-11-21T15:35:50;4.90;99.90
3194;DHT22;1608;50.860;13.466;2022-11-21T15:38:29;4.90;99.90
3194;DHT22;1608;50.860;13.466;2022-11-21T15:40:58;4.90;99.90
3194;DHT22;1608;50.860;13.466;2022-11-21T15:43:37;4.90;99.90
3194;DHT22;1608;50.860;13.466;2022-11-21T15:46:13;5.00;99.90
3194;DHT22;1608;50.860;13.466;2022-11-21T15:48:40;4.90;99.90
3194;DHT22;1608;50.860;13.466;2022-11-21T15:51:08;4.90;99.90
3194;DHT22;1608;50.860;13.466;2022-11-21T15:53:35;4.90;99.90
3194;DHT22;1608;50.860;13.466;2022-11-21T15:56:02;4.90;99.90
3194;DHT22;1608;50.860;13.466;2022-11-21T15:58:29;4.90;99.90
3194;DHT22;1608;50.860;13.466;2022-11-21T16:00:56;4.90;99.90
3194;DHT22;1608;50.860;13.466;2022-11-21T16:03:24;4.90;99.90
3194;DHT22;1608;50.860;13.466;2022-11-21T16:05:50;4.90;99.90
3194;DHT22;1608;50.860;13.466;2022-11-21T16:08:17;4.90;99.90
3194;DHT22;1608;50.860;13.466;2022-11-21T16:10:44;4.90;99.90
3194;DHT22;1608;50.860;13.466;2022-11-21T16:13:11;4.90;99.90
3194;DHT22;1608;50.860;13.466;2022-11-21T16:15:38;4.90;99.90
3194;DHT22;1608;50.860;13.466;2022-11-21T16:18:05;5.00;99.90
3194;DHT22;1608;50.860;13.466;2022-11-21T16:20:33;5.00;99.90
3194;DHT22;1608;50.860;13.466;2022-11-21T16:23:00;5.00;99.90
3194;DHT22;1608;50.860;13.466;2022-11-21T16:25:27;5.00;99.90
3194;DHT22;1608;50.860;13.466;2022-11-21T16:27:56;5.00;99.90
3194;DHT22;1608;50.860;13.466;2022-11-21T16:30:24;5.00;99.90
3194;DHT22;1608;50.860;13.466;2022-11-21T16:32:50;5.00;99.90
3194;DHT22;1608;50.860;13.466;2022-11-21T16:35:20;4.90;99.90
3194;DHT22;1608;50.860;13.466;2022-11-21T16:37:48;4.90;99.90